Time;durP1;ratioP1;P1;durP2;ratioP2;P2;SDS_P1;SDS_P2;PMS_P1;PMS_P2;Temp;Humidity;BMP_temperature;BMP_pressure;BME280_temperature;BME280_humidity;BME280_pressure;Samples;Min_cycle;Max_cycle;Signal;HPM_P1;HPM_P2
2023/11/05 00:03:37;;;;;;;6.97;1.87;;;;;9.40;96514.00;;;;10310086;28;20301;-72
2023/11/05 00:08:38;;;;;;;11.73;2.27;;;;;9.40;96501.00;;;;10313768;28;20657;-72
2023/11/05 00:13:40;;;;;;;7.13;2.20;;;;;9.40;96503.00;;;;10318964;28;20263;-72
2023/11/05 00:18:41;;;;;;;8.40;1.97;;;;;9.40;96433.00;;;;10326814;28;20743;-72
2023/11/05 00:23:42;;;;;;;12.37;2.43;;;;;9.40;96392.00;;;;10315176;28;20224;-73
2023/11/05 00:28:44;;;;;;;9.40;2.13;;;;;9.40;96391.00;;;;10312426;28;20230;-73
2023/11/05 00:33:45;;;;;;;10.13;2.20;;;;;9.40;96405.00;;;;10304623;28;20234;-73
2023/11/05 00:38:47;;;;;;;9.47;2.00;;;;;9.40;96414.00;;;;10309039;28;20749;-73
2023/11/05 00:43:48;;;;;;;7.87;1.70;;;;;9.40;96430.00;;;;10310761;28;20254;-72
2023/11/05 00:48:49;;;;;;;10.83;2.10;;;;;9.40;96452.00;;;;10319742;28;20224;-72
2023/11/05 00:53:50;;;;;;;7.10;2.67;;;;;9.40;96458.00;;;;10321352;28;20227;-73
2023/11/05 00:58:52;;;;;;;9.10;2.07;;;;;9.40;96460.00;;;;10323675;28;20214;-73
2023/11/05 01:03:53;;;;;;;6.17;1.20;;;;;9.50;96461.00;;;;10297668;28;20224;-73
2023/11/05 01:08:54;;;;;;;4.97;1.20;;;;;9.40;96465.00;;;;10315776;28;20223;-73
2023/11/05 01:13:55;;;;;;;5.77;1.40;;;;;9.40;96448.00;;;;10317956;28;20223;-73
2023/11/05 01:18:57;;;;;;;11.47;1.77;;;;;9.50;96449.00;;;;10306946;28;20223;-73
2023/11/05 01:23:59;;;;;;;2.90;1.10;;;;;9.50;96441.00;;;;10327821;28;20220;-73
2023/11/05 01:29:01;;;;;;;7.73;1.30;;;;;9.50;96440.00;;;;10290897;28;20706;-73
2023/11/05 01:34:04;;;;;;;6.07;1.67;;;;;9.50;96450.00;;;;10314333;28;20228;-74
2023/11/05 01:39:06;;;;;;;4.17;1.13;;;;;9.50;96446.00;;;;10329641;28;20216;-74
2023/11/05 01:44:07;;;;;;;4.77;1.30;;;;;9.50;96444.00;;;;10326293;28;20807;-74
2023/11/05 01:49:09;;;;;;;3.50;1.33;;;;;9.60;96445.00;;;;10315468;28;20267;-74
2023/11/05 01:54:12;;;;;;;3.60;1.17;;;;;9.60;96428.00;;;;10314702;28;20274;-74
2023/11/05 01:59:14;;;;;;;6.03;1.50;;;;;9.50;96441.00;;;;10318347;28;20331;-73
2023/11/05 02:04:15;;;;;;;4.97;1.20;;;;;9.50;96435.00;;;;10332420;28;20913;-73
2023/11/05 02:09:16;;;;;;;5.70;1.37;;;;;9.50;96433.00;;;;10316772;28;20713;-73
2023/11/05 02:14:18;;;;;;;8.07;1.27;;;;;9.60;96436.00;;;;10319457;28;20235;-75
2023/11/05 02:19:19;;;;;;;7.40;1.50;;;;;9.60;96429.00;;;;10313700;28;20291;-74
2023/11/05 02:24:24;;;;;;;3.97;1.10;;;;;9.50;96422.00;;;;10312367;28;20234;-75
2023/11/05 02:29:25;;;;;;;4.97;1.40;;;;;9.50;96417.00;;;;10309833;28;20359;-74
2023/11/05 02:34:26;;;;;;;6.40;1.40;;;;;9.50;96421.00;;;;10328556;28;20587;-74
2023/11/05 02:39:27;;;;;;;4.03;1.00;;;;;9.50;96414.00;;;;10315531;28;20224;-74
2023/11/05 02:44:29;;;;;;;8.27;1.70;;;;;9.50;96412.00;;;;10317803;28;20306;-72
2023/11/05 02:49:30;;;;;;;7.40;1.47;;;;;9.50;96413.00;;;;10315249;28;20279;-71
2023/11/05 02:54:33;;;;;;;8.17;1.60;;;;;9.50;96404.00;;;;10290732;28;20326;-70
2023/11/05 02:59:34;;;;;;;7.67;1.77;;;;;9.50;96416.00;;;;10331696;28;20853;-71
2023/11/05 03:04:36;;;;;;;13.17;1.73;;;;;9.60;96412.00;;;;10319568;28;20228;-70
2023/11/05 03:09:37;;;;;;;6.77;1.50;;;;;9.60;96409.00;;;;10319000;28;20240;-70
2023/11/05 03:14:38;;;;;;;13.23;2.13;;;;;9.70;96413.00;;;;10310003;28;20228;-72
2023/11/05 03:19:40;;;;;;;9.87;1.60;;;;;9.70;96417.00;;;;10312263;28;20826;-71
2023/11/05 03:24:41;;;;;;;8.70;1.87;;;;;9.70;96410.00;;;;10309331;28;20224;-71
2023/11/05 03:29:42;;;;;;;11.43;1.67;;;;;9.70;96415.00;;;;10318934;28;20240;-73
2023/11/05 03:34:44;;;;;;;7.63;1.47;;;;;9.80;96417.00;;;;10322315;28;20239;-71
2023/11/05 03:39:48;;;;;;;6.97;1.83;;;;;9.70;96421.00;;;;10314699;28;20220;-70
2023/11/05 03:44:49;;;;;;;5.27;1.40;;;;;9.70;96438.00;;;;10323654;28;20220;-71
2023/11/05 03:49:51;;;;;;;8.93;1.73;;;;;9.70;96444.00;;;;10313265;28;20231;-71
2023/11/05 03:54:54;;;;;;;7.43;1.73;;;;;9.70;96445.00;;;;10313791;28;20971;-71
2023/11/05 03:59:56;;;;;;;9.07;1.57;;;;;9.80;96445.00;;;;10307026;28;20581;-69
2023/11/05 04:04:57;;;;;;;4.90;1.37;;;;;9.80;96455.00;;;;10306516;28;20306;-69
2023/11/05 04:09:58;;;;;;;6.90;1.23;;;;;9.80;96451.00;;;;10296734;28;20318;-71
2023/11/05 04:15:02;;;;;;;8.07;1.47;;;;;9.70;96449.00;;;;10301989;28;20851;-71
2023/11/05 04:20:05;;;;;;;6.37;1.80;;;;;9.70;96451.00;;;;10318508;28;20246;-69
2023/11/05 04:25:06;;;;;;;6.63;1.80;;;;;9.70;96455.00;;;;10320095;28;20219;-70
2023/11/05 04:30:08;;;;;;;8.40;1.63;;;;;9.60;96451.00;;;;10297536;28;20235;-70
2023/11/05 04:35:09;;;;;;;8.20;2.03;;;;;9.50;96449.00;;;;10316067;28;21150;-70
2023/11/05 04:40:11;;;;;;;10.93;1.53;;;;;9.40;96460.00;;;;10318389;28;20227;-70
2023/11/05 04:45:14;;;;;;;10.00;1.93;;;;;9.30;96456.00;;;;10316253;28;20230;-70
2023/11/05 04:50:15;;;;;;;8.33;1.90;;;;;9.30;96463.00;;;;10312686;28;20255;-70
2023/11/05 04:55:17;;;;;;;12.80;2.30;;;;;9.20;96468.00;;;;10309723;28;20327;-69
2023/11/05 05:00:18;;;;;;;10.73;2.10;;;;;9.20;96470.00;;;;10339610;28;20227;-70
2023/11/05 05:05:19;;;;;;;12.53;2.70;;;;;9.20;96465.00;;;;10311409;28;20219;-70
2023/11/05 05:10:20;;;;;;;12.20;2.20;;;;;9.20;96473.00;;;;10319573;28;20232;-71
2023/11/05 05:15:21;;;;;;;11.07;1.83;;;;;9.20;96487.00;;;;10312722;28;20225;-70
2023/11/05 05:20:23;;;;;;;8.37;2.13;;;;;9.20;96486.00;;;;10322588;28;20251;-69
2023/11/05 05:25:24;;;;;;;12.80;2.33;;;;;9.20;96490.00;;;;10315842;28;20311;-70
2023/11/05 05:30:25;;;;;;;19.03;2.70;;;;;9.30;96493.00;;;;10316150;28;20231;-70
2023/11/05 05:35:26;;;;;;;12.27;2.67;;;;;9.40;96494.00;;;;10309776;28;20295;-70
2023/11/05 05:40:27;;;;;;;13.83;3.47;;;;;9.50;96509.00;;;;10329432;28;20306;-70
2023/11/05 05:45:28;;;;;;;13.00;3.10;;;;;9.60;96514.00;;;;10321151;28;20233;-71
2023/11/05 05:50:29;;;;;;;10.73;2.30;;;;;9.60;96522.00;;;;10322567;28;20239;-70
2023/11/05 05:55:30;;;;;;;11.50;2.97;;;;;9.60;96525.00;;;;10329407;28;20648;-70
2023/11/05 06:00:32;;;;;;;9.80;3.40;;;;;9.70;96532.00;;;;10311093;28;20587;-70
2023/11/05 06:05:33;;;;;;;8.03;2.27;;;;;9.70;96531.00;;;;10311225;28;20232;-70
2023/11/05 06:10:34;;;;;;;10.47;2.70;;;;;9.70;96543.00;;;;10318943;28;20856;-71
2023/11/05 06:15:36;;;;;;;12.03;2.50;;;;;9.80;96541.00;;;;10307259;28;20231;-70
2023/11/05 06:20:37;;;;;;;11.27;2.63;;;;;9.80;96556.00;;;;10302036;28;20220;-70
2023/11/05 06:25:38;;;;;;;12.13;2.90;;;;;9.80;96571.00;;;;10333621;28;20231;-71
2023/11/05 06:30:40;;;;;;;6.13;2.10;;;;;9.80;96578.00;;;;10317045;28;20228;-72
2023/11/05 06:35:42;;;;;;;10.50;2.23;;;;;9.90;96590.00;;;;10318771;28;20232;-71
2023/11/05 06:40:43;;;;;;;12.63;3.30;;;;;9.90;96603.00;;;;10296478;28;21125;-70
2023/11/05 06:45:44;;;;;;;3.97;1.80;;;;;10.00;96621.00;;;;10323708;28;20963;-70
2023/11/05 06:50:46;;;;;;;7.23;2.40;;;;;10.00;96617.00;;;;10312503;28;20251;-71
2023/11/05 06:55:48;;;;;;;9.57;2.50;;;;;10.00;96620.00;;;;10313983;28;20250;-70
2023/11/05 07:00:49;;;;;;;9.57;2.77;;;;;10.10;96640.00;;;;10298301;28;20230;-71
2023/11/05 07:05:51;;;;;;;10.47;2.60;;;;;10.10;96648.00;;;;10312120;28;20234;-72
2023/11/05 07:10:52;;;;;;;9.40;2.20;;;;;10.10;96660.00;;;;10292063;28;20319;-72
2023/11/05 07:15:53;;;;;;;7.27;1.90;;;;;10.10;96672.00;;;;10316708;28;20306;-70
2023/11/05 07:20:55;;;;;;;7.13;2.40;;;;;10.20;96686.00;;;;10321266;28;20660;-70
2023/11/05 07:25:56;;;;;;;6.67;1.90;;;;;10.20;96701.00;;;;10325163;28;20235;-72
2023/11/05 07:30:58;;;;;;;5.43;1.70;;;;;10.30;96706.00;;;;10311080;28;21039;-73
2023/11/05 07:36:02;;;;;;;6.80;2.10;;;;;10.40;96714.00;;;;10303670;28;20226;-73
2023/11/05 07:41:05;;;;;;;8.80;2.30;;;;;10.40;96726.00;;;;10306659;28;20220;-73
2023/11/05 07:46:09;;;;;;;6.13;2.30;;;;;10.50;96735.00;;;;10325340;28;20302;-72
2023/11/05 07:51:10;;;;;;;6.40;1.70;;;;;10.40;96748.00;;;;10300743;28;20235;-72
2023/11/05 07:56:12;;;;;;;11.57;2.10;;;;;10.40;96765.00;;;;10283266;28;20226;-73
2023/11/05 08:01:13;;;;;;;8.50;1.90;;;;;10.40;96774.00;;;;10306248;28;20250;-72
2023/11/05 08:06:14;;;;;;;4.93;1.50;;;;;10.60;96787.00;;;;10307502;28;20290;-72
2023/11/05 08:11:15;;;;;;;7.17;2.17;;;;;10.90;96796.00;;;;10308434;28;20224;-73
2023/11/05 08:16:17;;;;;;;5.68;2.10;;;;;10.70;96807.00;;;;10317543;28;20749;-72
2023/11/05 08:21:20;;;;;;;7.63;2.60;;;;;10.60;96823.00;;;;10309139;28;20230;-72
2023/11/05 08:26:21;;;;;;;8.67;2.50;;;;;10.70;96838.00;;;;10307816;28;20224;-72
2023/11/05 08:31:23;;;;;;;6.13;2.43;;;;;10.80;96850.00;;;;10323972;28;20227;-72
2023/11/05 08:36:24;;;;;;;6.07;3.03;;;;;10.90;96871.00;;;;10319679;28;20224;-74
2023/11/05 08:41:25;;;;;;;6.23;2.47;;;;;10.70;96885.00;;;;10313706;28;20224;-74
2023/11/05 08:46:26;;;;;;;5.70;2.90;;;;;10.70;96918.00;;;;10316330;28;20582;-75
2023/11/05 08:51:28;;;;;;;6.67;2.80;;;;;10.80;96930.00;;;;10318129;28;20238;-74
2023/11/05 08:56:29;;;;;;;8.23;2.97;;;;;10.90;96949.00;;;;10333457;28;20228;-74
2023/11/05 09:01:31;;;;;;;5.00;2.50;;;;;11.00;96959.00;;;;10319049;28;20228;-75
2023/11/05 09:06:32;;;;;;;4.57;2.57;;;;;11.30;96983.00;;;;10324270;28;20306;-76
2023/11/05 09:11:33;;;;;;;7.13;2.57;;;;;11.10;96991.00;;;;10323124;28;20228;-74
2023/11/05 09:16:35;;;;;;;8.73;2.80;;;;;10.70;97022.00;;;;10336802;28;20224;-76
2023/11/05 09:21:41;;;;;;;8.50;3.03;;;;;10.70;97042.00;;;;10327632;28;20297;-78
2023/11/05 09:26:42;;;;;;;5.97;3.03;;;;;10.80;97057.00;;;;10324524;28;20269;-76
2023/11/05 09:31:43;;;;;;;7.17;2.90;;;;;11.10;97076.00;;;;10332758;28;20281;-76
2023/11/05 09:36:44;;;;;;;8.80;3.50;;;;;10.90;97100.00;;;;10329692;28;20555;-76
2023/11/05 09:41:45;;;;;;;8.83;3.87;;;;;10.90;97114.00;;;;10340450;28;20423;-76
2023/11/05 09:46:50;;;;;;;8.53;3.07;;;;;11.20;97133.00;;;;10323909;28;20258;-72
2023/11/05 09:51:51;;;;;;;11.33;3.03;;;;;11.40;97144.00;;;;10319826;28;20212;-73
2023/11/05 09:56:53;;;;;;;5.18;3.30;;;;;11.80;97168.00;;;;10315412;28;20956;-73
2023/11/05 10:01:54;;;;;;;9.18;4.07;;;;;11.80;97174.00;;;;10314879;28;20230;-73
2023/11/05 10:06:56;;;;;;;10.07;3.95;;;;;11.60;97200.00;;;;10330254;28;20708;-72
2023/11/05 10:11:57;;;;;;;12.13;4.50;;;;;11.70;97217.00;;;;10318026;28;20717;-73
2023/11/05 10:16:58;;;;;;;11.73;5.05;;;;;11.80;97230.00;;;;10321749;28;20238;-73
2023/11/05 10:21:59;;;;;;;8.95;5.43;;;;;12.10;97247.00;;;;10320658;28;20220;-73
2023/11/05 10:27:01;;;;;;;16.05;6.15;;;;;12.50;97256.00;;;;10308523;28;20224;-72
2023/11/05 10:32:03;;;;;;;17.48;6.80;;;;;12.70;97269.00;;;;10317888;28;20826;-73
2023/11/05 10:37:06;;;;;;;16.55;7.25;;;;;12.90;97294.00;;;;10322168;28;20366;-73
2023/11/05 10:42:12;;;;;;;12.60;7.03;;;;;12.60;97316.00;;;;10339088;28;20220;-73
2023/11/05 10:47:15;;;;;;;16.08;7.07;;;;;12.10;97328.00;;;;10294593;28;20259;-73
2023/11/05 10:52:17;;;;;;;10.35;6.55;;;;;11.70;97354.00;;;;10316266;28;20330;-73
2023/11/05 10:57:46;;;;;;;14.55;7.60;;;;;11.50;97373.00;;;;10317691;28;20233;-73
2023/11/05 11:02:48;;;;;;;14.25;7.47;;;;;11.40;97381.00;;;;10330229;28;20299;-73
2023/11/05 11:07:57;;;;;;;17.75;7.38;;;;;11.50;97391.00;;;;10313455;28;20224;-73
2023/11/05 11:13:10;;;;;;;11.70;6.57;;;;;11.60;97411.00;;;;10312874;28;20224;-73
2023/11/05 11:18:21;;;;;;;14.45;6.72;;;;;11.70;97434.00;;;;10319457;28;20225;-73
2023/11/05 11:23:25;;;;;;;14.50;7.22;;;;;12.00;97447.00;;;;10313009;28;20668;-73
2023/11/05 11:28:27;;;;;;;10.00;5.40;;;;;12.20;97452.00;;;;10287369;28;20339;-73
2023/11/05 11:33:29;;;;;;;7.18;4.60;;;;;12.40;97462.00;;;;10315041;28;20220;-73
2023/11/05 11:38:30;;;;;;;8.32;4.18;;;;;12.80;97469.00;;;;10300030;28;20232;-73
2023/11/05 11:43:31;;;;;;;9.13;3.80;;;;;13.00;97498.00;;;;10286724;28;20367;-73
2023/11/05 11:48:33;;;;;;;6.95;3.35;;;;;12.80;97500.00;;;;10295958;28;20216;-73
2023/11/05 11:53:38;;;;;;;5.50;3.60;;;;;12.40;97532.00;;;;10313566;28;20240;-73
2023/11/05 11:58:41;;;;;;;6.95;3.38;;;;;12.20;97548.00;;;;10320332;28;20231;-73
2023/11/05 12:03:43;;;;;;;6.50;3.55;;;;;11.80;97561.00;;;;10315416;28;20236;-73
2023/11/05 12:08:45;;;;;;;4.55;3.05;;;;;11.60;97584.00;;;;10313244;28;20246;-73
2023/11/05 12:13:47;;;;;;;6.78;3.70;;;;;11.10;97584.00;;;;10302037;28;20509;-73
2023/11/05 12:18:49;;;;;;;5.68;3.40;;;;;10.90;97616.00;;;;10302162;28;20253;-73
2023/11/05 12:23:52;;;;;;;4.87;3.30;;;;;10.80;97639.00;;;;10311038;28;20505;-73
2023/11/05 12:28:54;;;;;;;4.95;3.08;;;;;10.70;97659.00;;;;10317689;28;20841;-72
2023/11/05 12:33:56;;;;;;;4.10;3.33;;;;;10.40;97672.00;;;;10315790;28;20228;-72
2023/11/05 12:38:58;;;;;;;6.40;3.10;;;;;10.40;97686.00;;;;10317219;28;20249;-73
2023/11/05 12:43:59;;;;;;;4.30;3.17;;;;;10.50;97711.00;;;;10322849;28;20231;-73
2023/11/05 12:49:01;;;;;;;5.07;3.70;;;;;10.80;97727.00;;;;10319189;28;20281;-73
2023/11/05 12:54:03;;;;;;;6.17;3.83;;;;;10.90;97736.00;;;;10315519;28;20224;-73
2023/11/05 12:59:04;;;;;;;5.43;3.97;;;;;11.00;97742.00;;;;10314428;28;20253;-73
2023/11/05 13:04:05;;;;;;;9.82;4.43;;;;;11.30;97759.00;;;;10317434;28;20290;-73
2023/11/05 13:09:08;;;;;;;11.60;4.80;;;;;11.40;97772.00;;;;10320898;28;20307;-73
2023/11/05 13:14:09;;;;;;;8.27;3.83;;;;;11.80;97782.00;;;;10338007;28;20231;-73
2023/11/05 13:19:12;;;;;;;7.20;4.80;;;;;12.50;97791.00;;;;10322978;28;20220;-72
2023/11/05 13:24:13;;;;;;;8.50;3.92;;;;;12.30;97814.00;;;;10319362;28;20235;-72
2023/11/05 13:29:14;;;;;;;8.68;4.43;;;;;12.40;97815.00;;;;10316666;28;20309;-73
2023/11/05 13:34:15;;;;;;;7.78;3.20;;;;;12.20;97838.00;;;;10308114;28;20234;-73
2023/11/05 13:39:16;;;;;;;5.72;3.15;;;;;11.60;97855.00;;;;10316388;28;20235;-72
2023/11/05 13:44:17;;;;;;;4.78;3.00;;;;;12.10;97857.00;;;;10308407;28;20226;-72
2023/11/05 13:49:18;;;;;;;6.95;3.08;;;;;12.00;97881.00;;;;10308793;28;21020;-73
2023/11/05 13:54:20;;;;;;;6.30;2.75;;;;;11.70;97893.00;;;;10314852;28;20224;-72
2023/11/05 13:59:24;;;;;;;6.25;2.40;;;;;12.30;97902.00;;;;10311826;28;20270;-73
2023/11/05 14:04:26;;;;;;;6.03;2.42;;;;;12.30;97913.00;;;;10306794;28;20224;-73
2023/11/05 14:09:30;;;;;;;4.60;2.17;;;;;12.60;97922.00;;;;10321133;28;20251;-73
2023/11/05 14:14:31;;;;;;;3.95;2.15;;;;;12.80;97931.00;;;;10315682;28;20942;-72
2023/11/05 14:19:33;;;;;;;3.72;1.88;;;;;13.00;97957.00;;;;10313627;28;20282;-73
2023/11/05 14:24:34;;;;;;;8.35;1.98;;;;;13.40;97987.00;;;;10305378;28;20266;-70
2023/11/05 14:29:35;;;;;;;5.18;1.58;;;;;13.10;98003.00;;;;10329953;28;20808;-71
2023/11/05 14:34:36;;;;;;;5.93;1.70;;;;;14.20;98030.00;;;;10309321;28;20850;-70
2023/11/05 14:39:40;;;;;;;4.90;1.55;;;;;12.80;98041.00;;;;10309959;28;20224;-70
2023/11/05 14:44:42;;;;;;;3.75;1.70;;;;;12.10;98051.00;;;;10305263;28;20262;-71
2023/11/05 14:49:46;;;;;;;3.95;1.55;;;;;11.70;98054.00;;;;10307724;28;20251;-71
2023/11/05 14:54:47;;;;;;;5.80;1.70;;;;;12.20;98065.00;;;;10311752;28;20224;-70
2023/11/05 14:59:49;;;;;;;4.15;1.55;;;;;12.20;98072.00;;;;10306403;28;20251;-71
2023/11/05 15:04:51;;;;;;;3.67;1.30;;;;;13.10;98106.00;;;;10316147;28;20227;-71
2023/11/05 15:09:52;;;;;;;4.65;1.30;;;;;12.50;98111.00;;;;10313829;28;21023;-71
2023/11/05 15:14:54;;;;;;;2.45;1.40;;;;;12.20;98125.00;;;;10307599;28;20232;-70
2023/11/05 15:19:55;;;;;;;2.85;1.30;;;;;12.00;98131.00;;;;10312973;28;20936;-71
2023/11/05 15:24:59;;;;;;;6.72;1.83;;;;;11.70;98157.00;;;;10288925;28;20227;-71
2023/11/05 15:30:01;;;;;;;6.68;1.65;;;;;11.40;98174.00;;;;10320825;28;20271;-70
2023/11/05 15:35:04;;;;;;;3.00;1.17;;;;;11.10;98182.00;;;;10328543;28;20308;-71
2023/11/05 15:40:07;;;;;;;4.97;1.20;;;;;11.00;98190.00;;;;10306459;28;20231;-71
2023/11/05 15:45:10;;;;;;;4.13;1.30;;;;;10.80;98210.00;;;;10303348;28;20246;-70
2023/11/05 15:50:12;;;;;;;4.07;1.20;;;;;10.70;98218.00;;;;10266907;28;20215;-71
2023/11/05 15:55:15;;;;;;;3.87;1.10;;;;;10.60;98226.00;;;;10318807;28;20219;-71
2023/11/05 16:00:16;;;;;;;6.73;1.13;;;;;10.60;98241.00;;;;10308788;28;21015;-70
2023/11/05 16:05:17;;;;;;;3.90;1.30;;;;;10.40;98249.00;;;;10311023;28;20223;-71
2023/11/05 16:10:20;;;;;;;3.70;1.30;;;;;10.30;98252.00;;;;10289080;28;20644;-71
2023/11/05 16:15:21;;;;;;;4.07;1.30;;;;;10.30;98278.00;;;;10318914;28;20239;-71
2023/11/05 16:20:23;;;;;;;5.07;1.53;;;;;10.20;98290.00;;;;10331275;28;20238;-70
2023/11/05 16:25:24;;;;;;;4.60;1.30;;;;;10.20;98291.00;;;;10328004;28;20230;-70
2023/11/05 16:30:25;;;;;;;5.47;1.70;;;;;10.10;98300.00;;;;10326971;28;20238;-70
2023/11/05 16:35:26;;;;;;;6.40;1.60;;;;;10.00;98312.00;;;;10302514;28;20296;-72
2023/11/05 16:40:28;;;;;;;4.00;1.50;;;;;9.90;98326.00;;;;10283182;28;20239;-72
2023/11/05 16:45:30;;;;;;;7.97;2.00;;;;;9.80;98340.00;;;;10301758;28;20310;-72
2023/11/05 16:50:31;;;;;;;3.77;1.40;;;;;9.70;98353.00;;;;10312109;28;20841;-70
2023/11/05 16:55:32;;;;;;;3.03;1.57;;;;;9.60;98372.00;;;;10325200;28;20310;-70
2023/11/05 17:00:35;;;;;;;6.93;1.70;;;;;9.70;98390.00;;;;10317183;28;20874;-71
2023/11/05 17:05:37;;;;;;;4.97;2.23;;;;;9.80;98390.00;;;;10326993;28;20915;-71
2023/11/05 17:10:38;;;;;;;4.27;1.90;;;;;9.90;98401.00;;;;10317619;28;20223;-70
2023/11/05 17:15:40;;;;;;;6.23;1.40;;;;;10.00;98415.00;;;;10315796;28;20226;-70
2023/11/05 17:20:41;;;;;;;6.10;2.07;;;;;10.00;98428.00;;;;10327907;28;20670;-71
2023/11/05 17:25:42;;;;;;;7.23;2.37;;;;;10.00;98434.00;;;;10322827;28;20227;-70
2023/11/05 17:30:44;;;;;;;6.77;1.83;;;;;10.00;98451.00;;;;10336763;28;20220;-71
2023/11/05 17:35:45;;;;;;;7.43;1.80;;;;;10.00;98466.00;;;;10288370;28;20322;-71
2023/11/05 17:40:47;;;;;;;6.93;1.97;;;;;10.10;98476.00;;;;10294072;28;20258;-70
2023/11/05 17:45:48;;;;;;;10.20;2.50;;;;;10.10;98490.00;;;;10315819;28;20239;-71
2023/11/05 17:50:49;;;;;;;4.40;1.80;;;;;10.00;98500.00;;;;10312170;28;20817;-70
2023/11/05 17:55:50;;;;;;;6.23;1.70;;;;;9.90;98498.00;;;;10322853;28;20229;-76
2023/11/05 18:00:51;;;;;;;5.93;1.50;;;;;9.90;98510.00;;;;10318458;28;20231;-76
2023/11/05 18:05:52;;;;;;;8.97;2.00;;;;;9.90;98524.00;;;;10316499;28;20223;-76
2023/11/05 18:10:53;;;;;;;5.93;1.63;;;;;9.80;98529.00;;;;10325901;28;20307;-77
2023/11/05 18:15:55;;;;;;;5.40;1.90;;;;;9.80;98537.00;;;;10307621;28;20246;-77
2023/11/05 18:20:56;;;;;;;7.67;1.83;;;;;9.70;98552.00;;;;10317969;28;20317;-78
2023/11/05 18:25:59;;;;;;;4.20;1.53;;;;;9.60;98558.00;;;;10317435;28;20216;-76
2023/11/05 18:31:00;;;;;;;6.87;1.70;;;;;9.50;98562.00;;;;10309886;28;20216;-76
2023/11/05 18:36:02;;;;;;;7.40;1.90;;;;;9.50;98562.00;;;;10329996;28;20593;-76
2023/11/05 18:41:03;;;;;;;5.67;1.83;;;;;9.60;98565.00;;;;10318504;28;20346;-76
2023/11/05 18:46:04;;;;;;;4.63;1.63;;;;;9.60;98583.00;;;;10317942;28;20301;-77
2023/11/05 18:51:05;;;;;;;6.20;1.60;;;;;9.50;98599.00;;;;10339879;28;20909;-76
2023/11/05 18:56:07;;;;;;;5.83;1.70;;;;;9.50;98597.00;;;;10316796;28;20237;-76
2023/11/05 19:01:08;;;;;;;8.03;2.33;;;;;9.50;98611.00;;;;10324700;28;20223;-76
2023/11/05 19:06:10;;;;;;;10.77;1.73;;;;;9.50;98623.00;;;;10316102;28;20220;-74
2023/11/05 19:11:14;;;;;;;2.73;1.17;;;;;9.50;98631.00;;;;10315351;28;20949;-74
2023/11/05 19:16:15;;;;;;;4.00;1.53;;;;;9.50;98634.00;;;;10321389;28;20225;-74
2023/11/05 19:21:16;;;;;;;5.10;1.70;;;;;9.40;98640.00;;;;10310690;28;20307;-74
2023/11/05 19:26:17;;;;;;;3.87;1.47;;;;;9.40;98645.00;;;;10316924;28;20234;-74
2023/11/05 19:31:18;;;;;;;7.27;1.57;;;;;9.50;98657.00;;;;10316356;28;20238;-74
2023/11/05 19:36:23;;;;;;;7.00;1.67;;;;;9.50;98666.00;;;;10315604;28;20250;-73
2023/11/05 19:41:32;;;;;;;8.67;1.70;;;;;9.50;98673.00;;;;10312777;28;20212;-74
2023/11/05 19:46:34;;;;;;;5.33;1.63;;;;;9.50;98691.00;;;;10316747;28;20228;-74
2023/11/05 19:51:35;;;;;;;6.67;1.50;;;;;9.50;98699.00;;;;10316340;28;20310;-74
2023/11/05 19:56:37;;;;;;;7.13;1.83;;;;;9.40;98702.00;;;;10302292;28;20235;-74
2023/11/05 20:01:40;;;;;;;3.93;1.13;;;;;9.50;98711.00;;;;10314816;28;20228;-74
2023/11/05 20:06:41;;;;;;;6.00;1.87;;;;;9.50;98722.00;;;;10309339;28;20257;-74
2023/11/05 20:11:42;;;;;;;6.30;1.63;;;;;9.50;98726.00;;;;10318668;28;20287;-74
2023/11/05 20:16:44;;;;;;;4.40;1.63;;;;;9.50;98735.00;;;;10309856;28;20817;-71
2023/11/05 20:21:46;;;;;;;5.53;1.47;;;;;9.50;98746.00;;;;10307776;28;20235;-71
2023/11/05 20:26:48;;;;;;;7.80;1.93;;;;;9.50;98753.00;;;;10318222;28;20366;-71
2023/11/05 20:31:49;;;;;;;6.00;1.90;;;;;9.50;98757.00;;;;10307562;28;20227;-70
2023/11/05 20:36:50;;;;;;;5.77;2.17;;;;;9.50;98769.00;;;;10310781;28;20227;-70
2023/11/05 20:41:52;;;;;;;6.43;1.67;;;;;9.50;98764.00;;;;10309408;28;20311;-70
2023/11/05 20:46:54;;;;;;;6.47;1.50;;;;;9.50;98769.00;;;;10309909;28;20713;-70
2023/11/05 20:51:56;;;;;;;7.87;2.00;;;;;9.60;98769.00;;;;10309560;28;20293;-70
2023/11/05 20:56:59;;;;;;;8.50;1.60;;;;;9.70;98771.00;;;;10300851;28;20290;-70
2023/11/05 21:02:01;;;;;;;6.33;1.93;;;;;9.60;98772.00;;;;10316827;28;20277;-71
2023/11/05 21:07:03;;;;;;;8.53;1.70;;;;;9.70;98774.00;;;;10318465;28;20307;-71
2023/11/05 21:12:05;;;;;;;3.63;1.63;;;;;9.70;98785.00;;;;10320127;28;20228;-71
2023/11/05 21:17:06;;;;;;;6.10;1.37;;;;;9.80;98792.00;;;;10316643;28;20227;-71
2023/11/05 21:22:08;;;;;;;7.20;1.60;;;;;9.80;98800.00;;;;10312146;28;20219;-71
2023/11/05 21:27:09;;;;;;;7.40;1.77;;;;;9.80;98800.00;;;;10317260;28;20322;-70
2023/11/05 21:32:10;;;;;;;5.27;1.50;;;;;9.70;98813.00;;;;10325091;28;20231;-71
2023/11/05 21:37:11;;;;;;;6.97;1.50;;;;;9.60;98810.00;;;;10303969;28;20231;-72
2023/11/05 21:42:12;;;;;;;5.87;1.43;;;;;9.60;98822.00;;;;10327129;28;20219;-71
2023/11/05 21:47:14;;;;;;;6.40;1.83;;;;;9.70;98820.00;;;;10324158;28;20228;-70
2023/11/05 21:52:15;;;;;;;7.37;2.73;;;;;9.70;98830.00;;;;10321784;28;20231;-70
2023/11/05 21:57:17;;;;;;;6.70;1.80;;;;;9.70;98836.00;;;;10299654;28;20306;-70
2023/11/05 22:02:19;;;;;;;11.40;1.87;;;;;9.80;98833.00;;;;10321771;28;20247;-70
2023/11/05 22:07:22;;;;;;;9.03;1.60;;;;;9.90;98822.00;;;;10323018;28;20235;-70
2023/11/05 22:12:23;;;;;;;9.27;2.03;;;;;9.90;98834.00;;;;10318161;28;20231;-70
2023/11/05 22:17:25;;;;;;;8.93;1.57;;;;;10.00;98854.00;;;;10325259;28;20224;-70
2023/11/05 22:22:26;;;;;;;8.93;1.50;;;;;10.00;98848.00;;;;10311648;28;20223;-70
2023/11/05 22:27:27;;;;;;;8.50;2.03;;;;;10.00;98857.00;;;;10325826;28;20216;-69
2023/11/05 22:32:29;;;;;;;12.47;2.30;;;;;9.90;98876.00;;;;10327269;28;20235;-71
2023/11/05 22:37:30;;;;;;;9.33;1.50;;;;;9.60;98873.00;;;;10316396;28;20866;-71
2023/11/05 22:42:31;;;;;;;7.13;1.90;;;;;9.50;98880.00;;;;10310293;28;20238;-71
2023/11/05 22:47:32;;;;;;;4.37;1.70;;;;;9.50;98897.00;;;;10318987;28;20318;-71
2023/11/05 22:52:33;;;;;;;7.93;1.47;;;;;9.50;98900.00;;;;10315586;28;20267;-71
2023/11/05 22:57:35;;;;;;;6.20;1.57;;;;;9.50;98903.00;;;;10320656;28;20295;-71
2023/11/05 23:02:36;;;;;;;12.27;1.60;;;;;9.50;98910.00;;;;10310678;28;20223;-72
2023/11/05 23:07:37;;;;;;;5.80;1.57;;;;;9.60;98908.00;;;;10315529;28;20294;-71
2023/11/05 23:12:38;;;;;;;7.17;1.70;;;;;9.60;98910.00;;;;10320880;28;20232;-71
2023/11/05 23:17:40;;;;;;;8.00;1.60;;;;;9.50;98911.00;;;;10316004;28;20307;-71
2023/11/05 23:22:41;;;;;;;6.30;1.17;;;;;9.50;98919.00;;;;10312901;28;20263;-71
2023/11/05 23:27:42;;;;;;;12.17;1.60;;;;;9.50;98934.00;;;;10313288;28;20278;-72
2023/11/05 23:32:43;;;;;;;3.33;1.70;;;;;9.50;98949.00;;;;10314273;28;20238;-71
2023/11/05 23:37:44;;;;;;;4.37;1.43;;;;;9.50;98942.00;;;;10318790;28;20223;-71
2023/11/05 23:42:46;;;;;;;3.90;1.60;;;;;9.50;98946.00;;;;10309164;28;20238;-74
2023/11/05 23:47:47;;;;;;;4.73;1.30;;;;;9.50;98968.00;;;;10315128;28;20952;-73
2023/11/05 23:52:49;;;;;;;5.80;2.07;;;;;9.50;98970.00;;;;10319196;28;20224;-74
2023/11/05 23:57:51;;;;;;;5.77;1.20;;;;;9.60;98982.00;;;;10316826;28;20224;-74
